createdAt,value
2019-05-02T00:02:23.959Z,92.80
2019-05-02T00:04:55.804Z,92.90
2019-05-02T00:07:26.973Z,92.90
2019-05-02T00:09:57.609Z,92.90
2019-05-02T00:12:28.022Z,93.00
2019-05-02T00:15:01.971Z,93.00
2019-05-02T00:17:32.697Z,93.10
2019-05-02T00:20:04.644Z,93.10
2019-05-02T00:22:34.974Z,93.10
2019-05-02T00:25:11.144Z,93.10
2019-05-02T00:27:39.259Z,93.10
2019-05-02T00:30:10.070Z,93.00
2019-05-02T00:32:40.480Z,93.10
2019-05-02T00:35:10.883Z,93.20
2019-05-02T00:37:41.507Z,93.40
2019-05-02T00:40:12.154Z,93.10
2019-05-02T00:42:42.505Z,93.20
2019-05-02T00:45:14.184Z,93.20
2019-05-02T00:48:04.176Z,93.20
2019-05-02T00:50:36.147Z,93.20
2019-05-02T00:53:07.166Z,93.20
2019-05-02T00:55:38.750Z,93.30
2019-05-02T00:58:09.088Z,93.30
2019-05-02T01:00:53.147Z,93.20
2019-05-02T01:03:23.393Z,93.60
2019-05-02T01:05:53.745Z,93.30
2019-05-02T01:08:24.089Z,93.30
2019-05-02T01:10:56.863Z,93.40
2019-05-02T01:13:26.540Z,93.50
2019-05-02T01:15:56.891Z,93.60
2019-05-02T01:18:27.247Z,93.50
2019-05-02T01:21:01.074Z,93.60
2019-05-02T01:23:29.647Z,93.60
2019-05-02T01:25:59.997Z,93.60
2019-05-02T01:28:49.204Z,93.60
2019-05-02T01:31:25.018Z,93.90
2019-05-02T01:34:18.017Z,93.60
2019-05-02T01:36:47.069Z,93.70
2019-05-02T01:39:17.429Z,93.70
2019-05-02T01:41:47.774Z,93.70
2019-05-02T01:44:18.159Z,93.60
2019-05-02T01:46:48.568Z,93.70
2019-05-02T01:49:21.895Z,93.70
2019-05-02T01:51:50.955Z,93.70
2019-05-02T01:54:21.294Z,93.70
2019-05-02T01:56:51.657Z,93.80
2019-05-02T01:59:22.004Z,93.80
2019-05-02T02:01:53.082Z,93.80
2019-05-02T02:04:24.427Z,93.80
2019-05-02T02:06:54.766Z,93.80
2019-05-02T02:09:25.144Z,93.80
2019-05-02T02:11:55.463Z,93.90
2019-05-02T02:14:25.827Z,93.90
2019-05-02T02:16:56.167Z,93.90
2019-05-02T02:19:28.176Z,94.00
2019-05-02T02:22:04.385Z,94.00
2019-05-02T02:24:39.220Z,94.00
2019-05-02T02:27:09.579Z,94.10
2019-05-02T02:29:44.051Z,94.00
2019-05-02T02:32:11.964Z,94.10
2019-05-02T02:34:42.313Z,94.30
2019-05-02T02:37:15.114Z,94.10
2019-05-02T02:39:48.548Z,94.10
2019-05-02T02:42:16.725Z,94.20
2019-05-02T02:44:48.713Z,94.20
2019-05-02T02:47:20.920Z,94.20
2019-05-02T02:49:55.745Z,94.30
2019-05-02T02:52:23.228Z,94.40
2019-05-02T02:54:53.498Z,94.40
2019-05-02T02:57:28.138Z,94.50
2019-05-02T03:00:06.370Z,94.40
2019-05-02T03:02:27.951Z,94.90
2019-05-02T03:05:10.593Z,94.40
2019-05-02T03:07:40.924Z,94.40
2019-05-02T03:10:11.424Z,94.50
2019-05-02T03:12:59.587Z,94.40
2019-05-02T03:15:31.640Z,94.30
2019-05-02T03:18:02.239Z,94.30
2019-05-02T03:20:40.134Z,94.40
2019-05-02T03:23:04.746Z,94.40
2019-05-02T03:25:49.791Z,94.40
2019-05-02T03:28:17.877Z,94.40
2019-05-02T03:30:39.282Z,94.50
2019-05-02T03:33:11.884Z,94.60
2019-05-02T03:35:48.070Z,94.50
2019-05-02T03:38:13.710Z,94.50
2019-05-02T03:40:44.331Z,94.60
2019-05-02T03:43:19.257Z,94.60
2019-05-02T03:45:46.974Z,94.50
2019-05-02T03:48:18.304Z,94.50
2019-05-02T03:50:50.400Z,94.90
2019-05-02T03:53:25.057Z,94.60
2019-05-02T03:55:54.360Z,94.60
2019-05-02T03:58:25.765Z,94.60
2019-05-02T04:01:01.628Z,94.60
2019-05-02T04:03:34.035Z,94.70
2019-05-02T04:06:01.481Z,94.70
2019-05-02T04:08:33.474Z,94.70
2019-05-02T04:11:39.062Z,94.70
2019-05-02T04:14:14.828Z,94.80
2019-05-02T04:16:40.108Z,94.90
2019-05-02T04:19:10.458Z,94.90
2019-05-02T04:21:40.864Z,94.80
2019-05-02T04:24:15.600Z,94.80
2019-05-02T04:26:53.385Z,94.80
2019-05-02T04:29:18.122Z,94.80
2019-05-02T04:31:48.539Z,94.80
2019-05-02T04:34:18.879Z,94.80
2019-05-02T04:36:59.756Z,94.80
2019-05-02T04:39:22.274Z,95.00
2019-05-02T04:41:52.583Z,94.90
2019-05-02T04:44:29.771Z,95.00
2019-05-02T04:46:59.958Z,95.10
2019-05-02T04:49:29.839Z,95.10
2019-05-02T04:52:06.158Z,95.10
2019-05-02T04:54:32.574Z,95.10
2019-05-02T04:57:03.178Z,95.00
2019-05-02T04:59:33.663Z,94.90
2019-05-02T05:02:04.921Z,94.90
2019-05-02T05:04:41.958Z,94.90
2019-05-02T05:07:09.324Z,94.90
2019-05-02T05:09:40.584Z,94.80
2019-05-02T05:12:11.062Z,94.70
2019-05-02T05:14:43.332Z,94.80
2019-05-02T05:17:13.443Z,94.80
2019-05-02T05:19:43.796Z,95.00
2019-05-02T05:22:14.134Z,94.50
2019-05-02T05:24:48.782Z,94.40
2019-05-02T05:27:22.774Z,93.70
2019-05-02T05:29:53.702Z,93.30
2019-05-02T05:32:23.218Z,93.20
2019-05-02T05:34:53.569Z,93.10
2019-05-02T05:37:23.921Z,93.20
2019-05-02T05:39:54.253Z,92.40
2019-05-02T05:42:31.865Z,92.30
2019-05-02T05:44:58.326Z,91.50
2019-05-02T05:47:28.809Z,91.40
2019-05-02T05:50:00.973Z,91.40
2019-05-02T05:52:32.963Z,91.40
2019-05-02T05:55:05.040Z,91.60
2019-05-02T05:57:35.487Z,91.60
2019-05-02T06:00:15.441Z,91.60
2019-05-02T06:02:53.247Z,91.60
2019-05-02T06:05:12.674Z,91.70
2019-05-02T06:07:44.933Z,91.80
2019-05-02T06:10:15.399Z,91.60
2019-05-02T06:12:45.756Z,91.60
2019-05-02T06:15:16.167Z,91.60
2019-05-02T06:17:46.530Z,91.60
2019-05-02T06:20:17.154Z,91.50
2019-05-02T06:22:47.524Z,91.50
2019-05-02T06:25:32.561Z,91.40
2019-05-02T06:27:50.773Z,91.40
2019-05-02T06:30:22.178Z,91.10
2019-05-02T06:32:54.931Z,90.30
2019-05-02T06:35:24.665Z,88.90
2019-05-02T06:37:55.029Z,86.90
2019-05-02T06:40:25.398Z,85.40
2019-05-02T06:42:55.754Z,83.00
2019-05-02T06:45:26.174Z,81.60
2019-05-02T06:47:56.544Z,79.70
2019-05-02T06:50:26.898Z,78.90
2019-05-02T06:52:57.279Z,77.10
2019-05-02T06:55:36.008Z,76.20
2019-05-02T06:58:02.863Z,73.00
2019-05-02T07:00:39.893Z,71.10
2019-05-02T07:03:10.006Z,70.00
2019-05-02T07:05:37.075Z,69.10
2019-05-02T07:08:11.807Z,67.60
2019-05-02T07:10:44.826Z,67.00
2019-05-02T07:13:14.906Z,65.40
2019-05-02T07:15:48.663Z,64.00
2019-05-02T07:18:21.021Z,62.50
2019-05-02T07:20:51.390Z,62.80
2019-05-02T07:23:21.787Z,61.70
2019-05-02T07:25:52.153Z,60.00
2019-05-02T07:28:24.134Z,59.90
2019-05-02T07:30:54.938Z,58.70
2019-05-02T07:33:26.353Z,57.90
2019-05-02T07:36:00.164Z,58.80
2019-05-02T07:38:28.975Z,58.50
2019-05-02T07:40:59.660Z,55.90
2019-05-02T07:43:30.072Z,56.20
2019-05-02T07:46:01.410Z,55.60
2019-05-02T07:48:31.745Z,56.00
2019-05-02T07:51:02.219Z,54.00
2019-05-02T07:53:32.671Z,53.10
2019-05-02T07:56:02.956Z,52.40
2019-05-02T07:58:33.310Z,54.30
2019-05-02T08:01:08.160Z,53.00
2019-05-02T08:03:36.550Z,53.60
2019-05-02T08:06:06.965Z,54.90
2019-05-02T08:08:37.323Z,54.30
2019-05-02T08:11:07.679Z,52.20
2019-05-02T08:13:38.035Z,54.10
2019-05-02T08:16:08.389Z,54.30
2019-05-02T08:18:39.027Z,54.80
2019-05-02T08:21:09.380Z,56.20
2019-05-02T08:23:39.746Z,54.80
2019-05-02T08:26:10.104Z,55.40
2019-05-02T08:28:42.106Z,56.80
2019-05-02T08:31:13.578Z,55.50
2019-05-02T08:33:44.516Z,53.30
2019-05-02T08:36:14.863Z,56.00
2019-05-02T08:38:48.939Z,56.60
2019-05-02T08:41:20.027Z,56.90
2019-05-02T08:43:49.351Z,56.10
2019-05-02T08:46:20.673Z,57.40
2019-05-02T08:48:51.041Z,56.10
2019-05-02T08:51:21.387Z,57.20
2019-05-02T08:53:56.887Z,57.60
2019-05-02T08:56:24.680Z,57.80
2019-05-02T08:58:55.039Z,56.30
2019-05-02T09:01:34.916Z,57.40
2019-05-02T09:03:57.453Z,57.50
2019-05-02T09:06:27.794Z,58.10
2019-05-02T09:08:58.153Z,58.60
2019-05-02T09:11:28.495Z,59.00
2019-05-02T09:13:58.863Z,59.90
2019-05-02T09:16:30.939Z,61.00
2019-05-02T09:19:02.766Z,62.40
2019-05-02T09:21:35.992Z,63.50
2019-05-02T09:24:08.543Z,64.30
2019-05-02T09:26:38.727Z,64.50
2019-05-02T09:29:09.187Z,65.20
2019-05-02T09:31:42.141Z,65.70
2019-05-02T09:34:11.836Z,66.00
2019-05-02T09:36:42.206Z,66.90
2019-05-02T09:39:12.565Z,67.70
2019-05-02T09:41:42.911Z,69.40
2019-05-02T09:44:18.474Z,70.10
2019-05-02T09:46:47.544Z,72.40
2019-05-02T09:49:17.375Z,72.00
2019-05-02T09:51:50.301Z,73.40
2019-05-02T09:54:19.780Z,74.80
2019-05-02T09:56:52.173Z,74.90
2019-05-02T09:59:29.949Z,75.90
2019-05-02T10:01:55.868Z,76.30
2019-05-02T10:04:26.243Z,76.80
2019-05-02T10:06:56.656Z,76.80
2019-05-02T10:09:27.351Z,77.30
2019-05-02T10:11:57.835Z,77.80
2019-05-02T10:14:28.176Z,78.40
2019-05-02T10:17:03.053Z,78.10
2019-05-02T10:19:32.540Z,78.00
2019-05-02T10:22:02.608Z,78.60
2019-05-02T10:24:32.966Z,78.90
2019-05-02T10:27:08.370Z,79.60
2019-05-02T10:29:37.295Z,79.70
2019-05-02T10:32:12.383Z,80.80
2019-05-02T10:34:39.745Z,80.30
2019-05-02T10:37:12.253Z,81.00
2019-05-02T10:39:42.338Z,81.60
2019-05-02T10:42:12.781Z,81.60
2019-05-02T10:44:43.143Z,82.30
2019-05-02T10:47:13.486Z,82.30
2019-05-02T10:49:52.733Z,82.60
2019-05-02T10:52:29.548Z,82.80
2019-05-02T10:54:55.293Z,83.10
2019-05-02T10:57:26.715Z,83.30
2019-05-02T10:59:57.066Z,84.80
2019-05-02T11:02:37.780Z,84.90
2019-05-02T11:05:11.877Z,86.20
2019-05-02T11:07:42.061Z,88.50
2019-05-02T11:10:12.885Z,89.90
2019-05-02T11:12:57.873Z,90.50
2019-05-02T11:15:46.251Z,90.50
2019-05-02T11:18:18.172Z,91.00
2019-05-02T11:20:48.548Z,91.00
2019-05-02T11:23:18.978Z,91.10
2019-05-02T11:25:49.294Z,91.70
2019-05-02T11:28:21.887Z,91.60
2019-05-02T11:30:52.617Z,91.40
2019-05-02T11:33:24.754Z,91.30
2019-05-02T11:35:55.171Z,91.40
2019-05-02T11:38:48.271Z,91.60
2019-05-02T11:40:57.634Z,91.50
2019-05-02T11:43:27.984Z,91.30
2019-05-02T11:46:05.543Z,91.20
2019-05-02T11:48:31.962Z,91.10
2019-05-02T11:51:02.766Z,91.00
2019-05-02T11:53:33.554Z,91.10
2019-05-02T11:56:07.439Z,91.10
2019-05-02T11:58:40.808Z,91.00
2019-05-02T12:01:08.096Z,91.00
2019-05-02T12:03:42.293Z,91.10
2019-05-02T12:06:18.961Z,91.30
2019-05-02T12:08:49.189Z,91.20
2019-05-02T12:11:17.893Z,91.10
2019-05-02T12:13:52.730Z,91.30
2019-05-02T12:16:22.951Z,91.30
2019-05-02T12:18:53.736Z,91.60
2019-05-02T12:21:25.111Z,91.60
2019-05-02T12:23:55.460Z,91.70
2019-05-02T12:26:25.809Z,92.00
2019-05-02T12:28:56.150Z,92.20
2019-05-02T12:31:32.148Z,92.20
2019-05-02T12:34:03.790Z,92.30
2019-05-02T12:36:34.150Z,92.20
2019-05-02T12:39:06.527Z,92.00
2019-05-02T12:41:37.257Z,92.10
2019-05-02T12:44:07.673Z,92.10
2019-05-02T12:46:38.046Z,91.80
2019-05-02T12:49:21.874Z,91.90
2019-05-02T12:51:40.467Z,91.60
2019-05-02T12:54:12.403Z,91.80
2019-05-02T12:56:42.864Z,91.90
2019-05-02T12:59:13.227Z,91.50
2019-05-02T13:01:43.580Z,91.90
2019-05-02T13:04:14.203Z,92.00
2019-05-02T13:06:44.610Z,91.90
2019-05-02T13:09:14.954Z,92.00
2019-05-02T13:11:52.944Z,91.70
2019-05-02T13:14:25.172Z,91.70
2019-05-02T13:17:01.433Z,91.60
2019-05-02T13:19:38.002Z,91.40
2019-05-02T13:22:12.445Z,91.20
2019-05-02T13:24:47.016Z,91.20
2019-05-02T13:27:17.688Z,91.20
2019-05-02T13:29:49.573Z,91.20
2019-05-02T13:32:24.029Z,91.20
2019-05-02T13:35:12.962Z,90.90
2019-05-02T13:37:45.295Z,90.70
2019-05-02T13:40:18.188Z,90.70
2019-05-02T13:42:48.554Z,90.30
2019-05-02T13:45:21.746Z,90.40
2019-05-02T13:47:52.225Z,90.70
2019-05-02T13:50:22.839Z,90.90
2019-05-02T13:52:57.840Z,91.00
2019-05-02T13:55:26.892Z,91.00
2019-05-02T13:57:57.255Z,91.20
2019-05-02T14:00:47.471Z,91.10
2019-05-02T14:03:19.450Z,91.30
2019-05-02T14:05:53.293Z,91.30
2019-05-02T14:08:27.403Z,91.10
2019-05-02T14:11:06.235Z,90.80
2019-05-02T14:13:37.338Z,90.60
2019-05-02T14:16:07.693Z,90.60
2019-05-02T14:18:38.064Z,90.70
2019-05-02T14:21:08.475Z,90.10
2019-05-02T14:23:38.832Z,90.60
2019-05-02T14:26:09.183Z,90.70
2019-05-02T14:28:39.564Z,90.20
2019-05-02T14:31:11.802Z,90.20
2019-05-02T14:33:43.694Z,90.00
2019-05-02T14:36:14.035Z,90.10
2019-05-02T14:38:44.387Z,89.50
2019-05-02T14:41:17.045Z,89.20
2019-05-02T14:43:53.032Z,89.10
2019-05-02T14:46:28.887Z,89.80
2019-05-02T14:48:58.073Z,89.90
2019-05-02T14:51:28.421Z,89.40
2019-05-02T14:54:03.731Z,88.10
2019-05-02T14:56:37.638Z,87.60
2019-05-02T14:59:09.345Z,86.70
2019-05-02T15:01:42.355Z,87.10
2019-05-02T15:04:13.082Z,86.80
2019-05-02T15:06:47.314Z,85.80
2019-05-02T15:09:16.685Z,86.10
2019-05-02T15:12:03.055Z,85.60
2019-05-02T15:14:35.089Z,85.50
2019-05-02T15:17:06.245Z,85.20
2019-05-02T15:19:36.600Z,85.60
2019-05-02T15:22:07.012Z,85.80
2019-05-02T15:24:37.995Z,84.70
2019-05-02T15:27:17.333Z,84.80
2019-05-02T15:29:41.978Z,84.20
2019-05-02T15:32:26.015Z,84.60
2019-05-02T15:35:17.580Z,84.40
2019-05-02T15:37:46.170Z,84.70
2019-05-02T15:40:43.550Z,84.30
2019-05-02T15:42:52.063Z,82.20
2019-05-02T15:45:23.896Z,82.50
2019-05-02T15:47:54.399Z,82.50
2019-05-02T15:50:25.962Z,83.00
2019-05-02T15:53:03.303Z,83.20
2019-05-02T15:55:33.883Z,82.50
2019-05-02T15:58:02.564Z,80.30
2019-05-02T16:00:34.710Z,78.00
2019-05-02T16:03:05.059Z,78.60
2019-05-02T16:05:36.710Z,79.30
2019-05-02T16:08:08.960Z,79.80
2019-05-02T16:10:42.690Z,79.70
2019-05-02T16:13:16.986Z,80.10
2019-05-02T16:15:45.419Z,80.20
2019-05-02T16:18:15.746Z,79.80
2019-05-02T16:21:05.496Z,80.20
2019-05-02T16:23:35.192Z,79.40
2019-05-02T16:26:05.526Z,79.20
2019-05-02T16:28:36.869Z,79.10
2019-05-02T16:31:09.753Z,78.90
2019-05-02T16:33:41.764Z,79.60
2019-05-02T16:36:12.648Z,79.10
2019-05-02T16:38:43.132Z,79.60
2019-05-02T16:41:13.464Z,79.80
2019-05-02T16:43:43.807Z,80.20
2019-05-02T16:46:15.416Z,80.00
2019-05-02T16:48:45.975Z,79.30
2019-05-02T16:51:30.001Z,79.80
2019-05-02T16:53:48.395Z,80.20
2019-05-02T16:56:19.177Z,78.80
2019-05-02T16:58:49.584Z,79.40
2019-05-02T17:01:27.126Z,78.90
2019-05-02T17:03:53.143Z,79.40
2019-05-02T17:06:26.072Z,79.30
2019-05-02T17:09:02.306Z,79.80
2019-05-02T17:11:38.929Z,79.60
2019-05-02T17:14:12.078Z,80.40
2019-05-02T17:16:42.133Z,79.80
2019-05-02T17:19:13.585Z,80.80
2019-05-02T17:21:52.724Z,80.30
2019-05-02T17:24:17.354Z,80.50
2019-05-02T17:26:48.006Z,80.70
2019-05-02T17:29:21.374Z,80.90
2019-05-02T17:31:55.341Z,80.60
2019-05-02T17:34:30.086Z,80.40
2019-05-02T17:36:59.188Z,79.60
2019-05-02T17:39:27.581Z,80.50
2019-05-02T17:42:00.337Z,80.70
2019-05-02T17:44:29.963Z,81.10
2019-05-02T17:47:01.824Z,81.30
2019-05-02T17:49:36.556Z,81.10
2019-05-02T17:52:27.001Z,81.80
2019-05-02T17:54:57.380Z,81.80
2019-05-02T17:57:33.484Z,81.80
2019-05-02T18:00:02.846Z,82.00
2019-05-02T18:02:34.724Z,81.40
2019-05-02T18:05:07.067Z,81.60
2019-05-02T18:07:37.417Z,81.60
2019-05-02T18:10:14.328Z,83.10
2019-05-02T18:12:40.222Z,82.70
2019-05-02T18:15:11.966Z,83.60
2019-05-02T18:17:42.769Z,83.00
2019-05-02T18:20:13.787Z,83.40
2019-05-02T18:22:45.426Z,83.80
2019-05-02T18:25:21.578Z,83.60
2019-05-02T18:27:48.610Z,83.30
2019-05-02T18:30:26.698Z,83.30
2019-05-02T18:32:57.876Z,84.00
2019-05-02T18:35:26.414Z,84.10
2019-05-02T18:37:56.742Z,84.40
2019-05-02T18:40:29.376Z,84.50
2019-05-02T18:43:01.987Z,84.90
2019-05-02T18:45:31.908Z,84.90
2019-05-02T18:48:06.468Z,85.30
2019-05-02T18:50:46.158Z,86.10
2019-05-02T18:53:13.980Z,86.40
2019-05-02T18:55:44.465Z,87.00
2019-05-02T18:58:14.791Z,87.20
2019-05-02T19:00:45.207Z,87.30
2019-05-02T19:03:17.429Z,87.70
2019-05-02T19:05:51.624Z,88.10
2019-05-02T19:08:29.042Z,88.10
2019-05-02T19:11:04.459Z,88.50
2019-05-02T19:13:25.522Z,88.80
2019-05-02T19:15:55.822Z,88.90
2019-05-02T19:18:26.172Z,88.60
2019-05-02T19:20:59.493Z,88.90
2019-05-02T19:23:31.870Z,89.00
2019-05-02T19:26:09.680Z,89.10
2019-05-02T19:28:38.340Z,89.40
2019-05-02T19:31:08.101Z,89.50
2019-05-02T19:33:42.589Z,89.70
2019-05-02T19:36:10.726Z,89.20
2019-05-02T19:38:42.823Z,89.80
2019-05-02T19:41:13.317Z,89.00
2019-05-02T19:43:49.275Z,89.10
2019-05-02T19:46:16.969Z,88.60
2019-05-02T19:48:47.379Z,88.60
2019-05-02T19:51:18.848Z,88.30
2019-05-02T19:53:53.457Z,88.50
2019-05-02T19:56:22.072Z,88.30
2019-05-02T19:58:54.010Z,88.30
2019-05-02T20:01:26.553Z,88.30
2019-05-02T20:03:56.811Z,88.30
2019-05-02T20:06:28.557Z,88.30
2019-05-02T20:09:03.737Z,88.20
2019-05-02T20:11:32.823Z,88.20
2019-05-02T20:14:09.387Z,88.00
2019-05-02T20:16:45.774Z,88.30
2019-05-02T20:19:17.258Z,88.30
2019-05-02T20:21:52.060Z,89.30
2019-05-02T20:24:24.148Z,88.50
2019-05-02T20:26:56.076Z,88.80
2019-05-02T20:29:26.515Z,88.60
2019-05-02T20:31:56.854Z,89.00
2019-05-02T20:34:27.192Z,89.10
2019-05-02T20:36:57.525Z,89.20
2019-05-02T20:39:27.891Z,89.40
2019-05-02T20:41:58.267Z,89.40
2019-05-02T20:44:28.649Z,89.70
2019-05-02T20:46:59.103Z,89.70
2019-05-02T20:49:29.498Z,89.60
2019-05-02T20:51:59.883Z,90.00
2019-05-02T20:54:32.210Z,90.20
2019-05-02T20:57:02.577Z,90.10
2019-05-02T20:59:33.012Z,90.10
2019-05-02T21:02:03.499Z,90.20
2019-05-02T21:04:33.885Z,90.00
2019-05-02T21:07:15.788Z,90.00
2019-05-02T21:09:56.834Z,90.00
2019-05-02T21:12:27.854Z,90.00
2019-05-02T21:14:58.239Z,90.00
2019-05-02T21:17:28.632Z,90.00
2019-05-02T21:19:59.012Z,90.00
2019-05-02T21:22:32.726Z,89.90
2019-05-02T21:25:03.236Z,90.00
2019-05-02T21:27:33.697Z,90.00
2019-05-02T21:30:07.861Z,90.00
2019-05-02T21:32:38.255Z,89.90
2019-05-02T21:35:08.941Z,90.00
2019-05-02T21:37:39.332Z,90.30
2019-05-02T21:40:11.710Z,90.00
2019-05-02T21:42:42.519Z,90.30
2019-05-02T21:45:13.959Z,89.80
2019-05-02T21:47:44.362Z,89.90
2019-05-02T21:50:32.807Z,89.90
2019-05-02T21:53:07.767Z,90.00
2019-05-02T21:55:45.821Z,90.00
2019-05-02T21:58:16.210Z,90.00
2019-05-02T22:00:54.631Z,90.00
2019-05-02T22:03:26.705Z,90.00
2019-05-02T22:05:57.097Z,90.00
2019-05-02T22:08:27.500Z,90.60
2019-05-02T22:10:57.876Z,90.80
2019-05-02T22:13:28.273Z,91.20
2019-05-02T22:15:58.648Z,90.90
2019-05-02T22:18:29.092Z,90.90
2019-05-02T22:21:01.574Z,90.90
2019-05-02T22:23:33.924Z,91.10
2019-05-02T22:26:03.628Z,91.10
2019-05-02T22:28:34.004Z,91.20
2019-05-02T22:31:04.694Z,91.30
2019-05-02T22:33:35.086Z,91.30
2019-05-02T22:36:05.542Z,91.40
2019-05-02T22:38:42.226Z,91.30
2019-05-02T22:41:12.658Z,91.30
2019-05-02T22:43:43.060Z,91.30
2019-05-02T22:46:15.079Z,91.40
2019-05-02T22:48:45.457Z,91.40
2019-05-02T22:51:15.828Z,91.20
2019-05-02T22:53:46.204Z,91.10
2019-05-02T22:56:16.589Z,91.20
2019-05-02T22:58:46.963Z,91.30
2019-05-02T23:01:17.351Z,91.30
2019-05-02T23:03:47.798Z,91.30
2019-05-02T23:06:18.178Z,91.30
2019-05-02T23:08:48.559Z,91.40
2019-05-02T23:11:18.957Z,91.40
2019-05-02T23:13:49.327Z,91.60
2019-05-02T23:16:19.723Z,91.50
2019-05-02T23:18:52.050Z,91.60
2019-05-02T23:21:23.616Z,91.60
2019-05-02T23:23:53.992Z,91.70
2019-05-02T23:26:28.934Z,91.90
2019-05-02T23:29:02.307Z,92.00
2019-05-02T23:31:32.733Z,92.00
2019-05-02T23:34:03.117Z,92.20
2019-05-02T23:36:33.636Z,92.30
2019-05-02T23:39:05.627Z,92.40
2019-05-02T23:41:36.832Z,92.20
2019-05-02T23:44:07.275Z,92.10
2019-05-02T23:46:37.656Z,92.00
2019-05-02T23:49:08.028Z,92.10
2019-05-02T23:51:38.424Z,92.10
2019-05-02T23:54:08.969Z,92.10
2019-05-02T23:56:39.360Z,92.10
2019-05-02T23:59:11.721Z,92.10
